Latest Weather Observations for Latrobe Valley

IDV60801

Issued at 10:32 pm EST Monday 19 August 2019 (issued every 10 minutes, with the page automatically refreshed every 10 minutes)

About weather observations | Map of weather stations | Latest weather observations for VIC | Other Formats
Station Details ID: 085280 Name: LATROBE VALLEY AIRPORT Lat: -38.21 Lon: 146.47 Height: 55.7 m
Data from the previous 72 hours. | See also: Recent months at Latrobe Valley
Date/Time
EST
Temp
°C
App
Temp
°C
Dew
Point
°C
Rel
Hum
%
Delta-T
°C
Wind Press
QNH
hPa
Press
MSL
hPa
Rain since
9am
mm
Dir  Spd
km/h
Gust
km/h
Spd
kts
Gust
kts
19/10:30pm 8.9 1.0 4.5 74 1.9 W 35 46 19 25 1021.2 1021.3 3.4
19/10:00pm 8.5 0.9 4.1 74 1.9 W 33 44 18 24 1021.1 1021.2 3.4
19/09:30pm 8.2 0.8 4.0 75 1.8 W 32 41 17 22 1021.2 1021.3 3.4
19/09:00pm 8.4 1.0 4.2 75 1.8 WNW 32 41 17 22 1020.8 1020.9 3.4
19/08:30pm 8.0 1.8 4.4 78 1.6 WNW 26 33 14 18 1021.2 1021.3 3.4
19/08:00pm 8.2 0.9 4.6 78 1.6 WNW 32 39 17 21 1020.7 1020.8 3.4
19/07:30pm 8.1 1.6 4.9 80 1.4 W 28 41 15 22 1020.7 1020.8 3.4
19/07:00pm 7.9 1.4 4.8 81 1.4 W 28 41 15 22 1020.5 1020.6 3.4
19/06:30pm 7.9 1.4 4.8 81 1.4 W 28 39 15 21 1020.1 1020.2 3.4
19/06:00pm 8.0 1.5 4.8 80 1.4 W 28 39 15 21 1019.8 1019.9 3.4
19/05:30pm 8.4 3.6 5.7 83 1.2 W 20 30 11 16 1019.4 1019.5 3.4
19/05:00pm 8.2 1.9 5.8 85 1.1 W 28 37 15 20 1018.9 1019.0 3.4
19/04:30pm 8.2 1.8 5.3 82 1.3 W 28 41 15 22 1018.5 1018.6 3.2
19/04:00pm 7.9 -0.6 5.2 83 1.2 W 39 52 21 28 1018.3 1018.4 3.2
19/03:30pm 9.0 1.7 5.4 78 1.6 W 33 44 18 24 1017.7 1017.8 2.8
19/03:00pm 8.6 0.9 5.4 80 1.4 W 35 50 19 27 1017.4 1017.5 2.8
19/02:39pm 9.4 1.8 5.6 77 1.7 W 35 54 19 29 1017.2 1017.3 2.8
19/02:30pm 9.3 1.8 6.2 81 1.4 W 35 52 19 28 1017.2 1017.3 2.8
19/02:00pm 8.9 1.3 5.6 80 1.5 W 35 50 19 27 1017.0 1017.1 2.8
19/01:30pm 8.1 1.0 5.6 84 1.1 W 32 44 17 24 1017.1 1017.2 2.8
19/01:18pm 8.1 1.9 6.1 87 0.9 W 28 33 15 18 1016.8 1016.9 2.8
19/01:09pm 7.2 -0.2 5.2 87 0.9 W 33 52 18 28 1016.9 1017.0 2.8
19/01:04pm 6.7 -1.5 4.5 86 1.0 W 37 52 20 28 1017.1 1017.2 2.8
19/01:00pm 7.0 -0.8 4.8 86 1.0 W 35 48 19 26 1017.2 1017.3 2.6
19/12:30pm 7.1 -1.1 4.6 84 1.1 W 37 54 20 29 1017.1 1017.2 2.0
19/12:04pm 7.0 -0.2 4.8 86 1.0 W 32 52 17 28 1016.8 1016.9 2.0
19/12:00pm 7.5 1.2 5.5 87 0.9 W 28 41 15 22 1017.0 1017.1 2.0
19/11:30am 7.6 -0.5 5.2 85 1.1 WNW 37 57 20 31 1017.0 1017.1 1.8
19/11:21am 6.8 -0.7 4.6 86 1.0 WNW 33 57 18 31 1017.0 1017.1 1.8
19/11:08am 7.3 -0.5 5.1 86 1.0 WNW 35 48 19 26 1016.9 1017.0 1.6
19/11:00am 7.1 -0.7 5.1 87 0.9 WNW 35 46 19 25 1016.7 1016.8 1.6
19/10:59am 7.2 -0.5 5.3 88 0.8 WNW 35 46 19 25 1016.6 1016.7 1.6
19/10:51am 6.3 -1.2 4.6 89 0.7 WNW 33 46 18 25 1016.6 1016.7 1.6
19/10:44am 6.2 -1.3 4.7 90 0.7 W 33 46 18 25 1016.8 1016.9 1.6
19/10:30am 5.9 0.5 4.4 90 0.6 W 22 33 12 18 1016.7 1016.8 1.2
19/10:12am 5.5 -0.4 3.8 89 0.7 WNW 24 35 13 19 1016.3 1016.4 0.8
19/10:00am 5.4 -0.1 3.9 90 0.6 WNW 22 32 12 17 1016.0 1016.1 0.4
19/09:49am 5.1 -1.2 3.6 90 0.6 WNW 26 33 14 18 1015.9 1016.0 0.0
19/09:43am 5.3 -1.0 3.8 90 0.6 WNW 26 39 14 21 1015.8 1015.9 0.0
19/09:30am 5.3 -1.4 3.6 89 0.7 WNW 28 39 15 21 1015.8 1015.9 0.0
19/09:17am 5.5 -0.8 3.8 89 0.7 WNW 26 35 14 19 1015.4 1015.4 0.0
19/09:00am 4.5 -2.4 2.8 89 0.7 WNW 28 37 15 20 1015.2 1015.2 24.6
19/08:48am 4.7 -2.1 3.0 89 0.7 WNW 28 39 15 21 1015.0 1015.0 24.4
19/08:30am 4.5 -2.7 2.8 89 0.7 W 30 41 16 22 1014.9 1014.9 24.2
19/08:25am 4.4 -2.5 2.8 89 0.7 W 28 41 15 22 1015.0 1015.0 24.0
19/08:16am 4.7 -1.7 3.0 89 0.7 WSW 26 37 14 20 1015.0 1015.0 23.2
19/08:05am 4.8 -2.4 3.1 89 0.7 WSW 30 39 16 21 1014.7 1014.7 21.8
19/08:00am 4.8 -2.8 3.1 89 0.7 W 32 48 17 26 1014.6 1014.6 21.4
19/07:51am 5.0 -1.7 3.5 90 0.6 W 28 48 15 26 1014.1 1014.1 20.4
19/07:30am 4.7 -1.4 3.0 89 0.7 W 24 35 13 19 1013.6 1013.6 20.0
19/07:00am 4.5 -1.6 2.7 88 0.7 W 24 35 13 19 1012.6 1012.7 20.0
19/06:37am 4.6 -3.2 2.8 88 0.7 W 33 48 18 26 1012.3 1012.4 20.0
19/06:30am 4.6 -3.2 2.9 89 0.7 W 33 48 18 26 1012.1 1012.2 19.8
19/06:16am 5.5 -1.6 3.8 89 0.7 W 30 52 16 28 1011.9 1012.0 19.4
19/06:15am 5.6 -1.1 3.9 89 0.7 W 28 46 15 25 1011.9 1012.0 19.2
19/06:00am 5.7 -0.9 4.2 90 0.6 W 28 41 15 22 1011.3 1011.4 18.6
19/05:53am 5.8 -1.7 4.3 90 0.6 W 33 43 18 23 1011.2 1011.3 18.2
19/05:30am 4.7 -0.9 3.4 91 0.5 WSW 22 32 12 17 1011.0 1011.1 18.2
19/05:03am 4.8 -0.4 3.3 90 0.6 WSW 20 26 11 14 1010.7 1010.8 17.6
19/05:00am 4.8 -0.4 3.3 90 0.6 WSW 20 28 11 15 1010.7 1010.8 17.6
19/04:41am 4.9 -1.9 3.2 89 0.7 WSW 28 37 15 20 1010.6 1010.7 17.2
19/04:30am 5.0 -2.7 3.3 89 0.7 WSW 33 44 18 24 1010.3 1010.4 17.0
19/04:18am 5.1 -2.4 3.4 89 0.7 WSW 32 50 17 27 1010.4 1010.5 16.4
19/04:16am 5.4 -1.7 3.7 89 0.7 WSW 30 44 16 24 1010.4 1010.5 16.2
19/04:00am 5.6 -1.4 3.9 89 0.7 W 30 44 16 24 1009.9 1010.0 15.0
19/03:30am 5.4 -3.0 3.7 89 0.7 WSW 37 46 20 25 1009.6 1009.7 14.0
19/03:20am 5.6 -2.0 3.9 89 0.7 WSW 33 44 18 24 1009.5 1009.6 13.2
19/03:06am 5.7 -3.4 4.0 89 0.7 W 41 54 22 29 1009.3 1009.4 12.6
19/03:00am 6.0 -2.7 4.3 89 0.7 W 39 57 21 31 1009.1 1009.2 12.2
19/02:52am 6.1 -2.5 4.4 89 0.7 W 39 57 21 31 1008.9 1009.0 11.8
19/02:32am 6.2 -1.6 4.7 90 0.7 W 35 54 19 29 1008.7 1008.8 11.4
19/02:30am 6.2 -2.0 4.7 90 0.7 W 37 54 20 29 1008.6 1008.7 11.4
19/02:23am 6.2 -1.6 4.7 90 0.7 W 35 54 19 29 1008.7 1008.8 11.4
19/02:00am 6.3 -0.9 4.8 90 0.7 WSW 32 43 17 23 1008.6 1008.7 11.0
19/01:46am 6.3 -1.1 4.8 90 0.7 W 33 46 18 25 1008.7 1008.8 10.6
19/01:30am 6.4 -0.1 4.9 90 0.7 WSW 28 43 15 23 1008.7 1008.8 9.8
19/01:10am 6.5 -0.7 4.8 89 0.7 W 32 46 17 25 1008.3 1008.4 7.6
19/01:00am 6.6 -0.6 4.9 89 0.7 W 32 44 17 24 1008.1 1008.2 7.0
19/12:30am 6.5 -1.7 4.7 88 0.8 WNW 37 50 20 27 1007.2 1007.3 6.6
19/12:27am 6.6 -1.6 4.9 89 0.7 WNW 37 50 20 27 1007.1 1007.2 6.6
19/12:00am 6.6 -2.0 4.8 88 0.8 W 39 50 21 27 1006.7 1006.8 5.8
 
Date/Time
EST
Temp
°C
App
Temp
°C
Dew
Point
°C
Rel
Hum
%
Delta-T
°C
Wind Press
QNH
hPa
Press
MSL
hPa
Rain since
9am
mm
Dir  Spd
km/h
Gust
km/h
Spd
kts
Gust
kts
18/11:30pm 6.8 -2.5 5.0 88 0.8 WNW 43 61 23 33 1005.9 1006.0 4.6
18/11:17pm 6.9 -2.4 4.9 87 0.9 WNW 43 65 23 35 1005.4 1005.5 4.2
18/11:09pm 7.0 -1.9 5.0 87 0.9 WNW 41 63 22 34 1005.1 1005.2 4.0
18/11:07pm 7.1 -1.5 4.9 86 1.0 WNW 39 54 21 29 1005.0 1005.1 4.0
18/11:00pm 7.3 -1.6 5.0 85 1.0 WNW 41 63 22 34 1004.9 1005.0 3.8
18/10:30pm 7.9 0.1 4.7 80 1.4 W 35 57 19 31 1004.8 1004.9 3.8
18/10:13pm 8.9 1.4 4.5 74 1.9 WNW 33 65 18 35 1004.3 1004.4 3.8
18/10:08pm 8.9 2.4 4.5 74 1.9 NW 28 46 15 25 1004.3 1004.4 3.8
18/10:00pm 9.3 3.9 4.3 71 2.2 NW 22 43 12 23 1004.1 1004.2 3.8
18/09:30pm 9.0 3.6 4.6 74 2.0 NW 22 30 12 16 1004.3 1004.4 3.8
18/09:00pm 9.0 2.9 5.0 76 1.8 NW 26 35 14 19 1004.4 1004.5 3.8
18/08:52pm 9.2 2.7 4.8 74 2.0 NW 28 46 15 25 1004.2 1004.3 3.8
18/08:30pm 8.9 4.6 5.3 78 1.6 NW 17 22 9 12 1004.5 1004.6 3.8
18/08:00pm 9.0 5.9 5.6 79 1.6 WNW 11 13 6 7 1004.9 1005.0 3.8
18/07:30pm 9.5 6.6 6.4 81 1.4 NW 11 15 6 8 1005.0 1005.1 3.8
18/07:00pm 9.9 5.6 7.8 87 1.0 NW 20 30 11 16 1005.1 1005.2 3.8
18/06:30pm 9.6 4.9 7.9 89 0.8 W 22 32 12 17 1005.4 1005.5 3.4
18/06:00pm 10.0 5.0 8.1 88 0.9 W 24 35 13 19 1005.2 1005.3 2.0
18/05:30pm 10.6 4.9 8.4 86 1.1 WNW 28 39 15 21 1004.5 1004.6 0.8
18/05:00pm 12.6 4.5 7.1 69 2.7 W 39 48 21 26 1003.6 1003.7 0.2
18/04:54pm 13.4 5.9 6.5 63 3.3 NW 35 48 19 26 1003.5 1003.6 0.2
18/04:30pm 16.7 9.1 3.1 40 6.2 NNW 32 44 17 24 1002.4 1002.5 0.2
18/04:00pm 17.4 10.5 2.6 37 6.8 NW 28 46 15 25 1002.2 1002.3 0.2
18/03:55pm 17.3 9.6 3.2 39 6.5 NW 33 52 18 28 1002.3 1002.4 0.2
18/03:30pm 19.0 11.1 2.0 32 7.8 NW 33 44 18 24 1002.1 1002.2 0.2
18/03:00pm 20.2 12.4 3.0 32 8.1 NW 33 50 18 27 1002.3 1002.4 0.2
18/02:59pm 20.3 12.0 2.2 30 8.4 NW 35 50 19 27 1002.3 1002.4 0.2
18/02:33pm 20.9 12.1 3.6 32 8.3 WNW 39 57 21 31 1002.1 1002.2 0.2
18/02:30pm 20.9 11.5 2.2 29 8.7 WNW 41 57 22 31 1001.9 1002.0 0.2
18/02:17pm 21.4 15.1 3.6 31 8.6 WNW 26 48 14 26 1002.0 1002.1 0.2
18/02:00pm 21.6 17.2 4.7 33 8.3 NNW 17 28 9 15 1002.1 1002.2 0.2
18/01:30pm 22.3 17.2 3.9 30 9.0 N 20 30 11 16 1002.4 1002.5 0.2
18/01:00pm 21.7 13.6 3.4 30 8.8 N 35 52 19 28 1003.2 1003.3 0.2
18/12:30pm 21.1 13.5 3.8 32 8.3 N 33 50 18 27 1004.0 1004.1 0.2
18/12:15pm 20.7 13.0 3.4 32 8.2 NNE 33 54 18 29 1004.2 1004.3 0.2
18/12:00pm 20.1 12.8 4.6 36 7.6 NNE 32 48 17 26 1004.8 1004.9 0.2
18/11:35am 19.3 14.8 6.8 44 6.3 NE 20 46 11 25 1005.8 1005.9 0.0
18/11:30am 18.2 14.8 7.6 50 5.4 E 15 22 8 12 1006.1 1006.2 0.0
18/11:00am 15.6 14.1 10.4 71 2.8 E 9 11 5 6 1007.5 1007.6 0.0
18/10:30am 13.6 12.8 12.8 95 0.4 NNE 9 11 5 6 1007.9 1008.0 0.0
18/10:29am 13.6 12.8 12.8 95 0.4 NNE 9 11 5 6 1007.9 1008.0 0.0
18/10:00am 8.5 8.0 7.9 96 0.3 CALM 0 0 0 0 1008.4 1008.5 0.0
18/09:30am 6.7 4.1 6.0 95 0.3 NE 9 13 5 7 1008.6 1008.7 0.0
18/09:00am 6.6 4.0 6.0 96 0.3 NE 9 11 5 6 1009.2 1009.3 0.0
18/08:30am 6.1 3.4 5.5 96 0.3 NE 9 11 5 6 1009.8 1009.9 0.0
18/08:00am 5.6 2.7 4.9 95 0.3 NE 9 13 5 7 1009.8 1009.9 0.0
18/07:30am 5.2 2.7 4.5 95 0.3 NNE 7 9 4 5 1010.2 1010.3 0.0
18/07:00am 5.0 2.4 4.3 95 0.3 NNE 7 7 4 4 1010.6 1010.7 0.0
18/06:30am 4.9 2.3 4.2 95 0.3 NNE 7 9 4 5 1010.9 1011.0 0.0
18/06:00am 5.0 2.4 4.3 95 0.3 NNE 7 9 4 5 1011.1 1011.2 0.0
18/05:30am 5.1 2.7 4.4 95 0.3 N 6 7 3 4 1011.5 1011.6 0.0
18/05:00am 5.3 4.1 4.6 95 0.3 CALM 0 0 0 0 1011.7 1011.8 0.0
18/04:30am 5.7 2.9 5.0 95 0.3 NE 9 13 5 7 1011.7 1011.8 0.0
18/04:22am 5.7 2.9 5.0 95 0.3 ENE 9 11 5 6 1011.5 1011.6 0.0
18/04:21am 5.7 2.9 5.0 95 0.3 ENE 9 11 5 6 1011.6 1011.7 0.0
18/04:00am 4.9 3.6 4.2 95 0.3 CALM 0 7 0 4 1011.9 1012.0 0.0
18/03:30am 4.2 2.0 3.3 94 0.4 NNE 4 7 2 4 1012.5 1012.6 0.0
18/03:00am 6.0 3.8 5.3 95 0.3 ESE 6 9 3 5 1012.6 1012.7 0.0
18/02:30am 6.8 5.9 6.1 95 0.3 CALM 0 0 0 0 1013.8 1013.8 0.0
18/02:00am 7.3 4.8 6.6 95 0.3 E 9 11 5 6 1013.9 1013.9 0.0
18/01:30am 7.7 5.6 6.8 94 0.4 E 7 15 4 8 1014.2 1014.2 0.0
18/01:00am 7.8 7.1 6.9 94 0.4 CALM 0 0 0 0 1015.2 1015.2 0.0
18/12:30am 7.9 5.5 7.0 94 0.4 NE 9 13 5 7 1015.7 1015.8 0.0
18/12:00am 8.3 5.9 7.2 93 0.5 NNE 9 11 5 6 1016.0 1016.1 0.0
 
Date/Time
EST
Temp
°C
App
Temp
°C
Dew
Point
°C
Rel
Hum
%
Delta-T
°C
Wind Press
QNH
hPa
Press
MSL
hPa
Rain since
9am
mm
Dir  Spd
km/h
Gust
km/h
Spd
kts
Gust
kts
17/11:45pm 8.6 6.3 7.5 93 0.5 NE 9 13 5 7 1016.0 1016.1 0.0
17/11:30pm 8.7 7.0 7.6 93 0.5 NE 6 9 3 5 1016.2 1016.3 0.0
17/11:00pm 8.4 7.0 7.3 93 0.5 NE 4 9 2 5 1016.5 1016.6 0.0
17/10:30pm 8.4 6.4 7.2 92 0.6 ESE 7 9 4 5 1016.8 1016.9 0.0
17/10:29pm 8.4 6.4 7.2 92 0.6 E 7 9 4 5 1016.8 1016.9 0.0
17/10:00pm 8.3 5.9 7.1 92 0.6 E 9 15 5 8 1016.6 1016.7 0.0
17/09:30pm 8.1 5.7 6.9 92 0.6 E 9 15 5 8 1017.1 1017.2 0.0
17/09:00pm 7.9 6.0 6.5 91 0.6 E 6 9 3 5 1017.5 1017.6 0.0
17/08:30pm 8.5 5.7 7.1 91 0.7 NE 11 15 6 8 1017.4 1017.5 0.0
17/08:00pm 8.2 6.1 6.5 89 0.8 NE 7 11 4 6 1017.4 1017.5 0.0
17/07:30pm 8.9 6.5 6.9 87 0.9 NE 9 13 5 7 1017.5 1017.6 0.0
17/07:00pm 9.7 6.6 7.3 85 1.1 NE 13 15 7 8 1017.7 1017.8 0.0
17/06:30pm 10.1 7.2 6.6 79 1.6 NE 11 15 6 8 1017.9 1018.0 0.0
17/06:00pm 11.4 8.2 6.9 74 2.1 NE 13 17 7 9 1017.9 1018.0 0.0
17/05:30pm 12.2 8.6 6.7 69 2.6 ENE 15 20 8 11 1017.8 1017.9 0.0
17/05:00pm 12.8 8.5 6.8 67 2.9 NE 19 26 10 14 1017.7 1017.8 0.0
17/04:30pm 13.4 8.9 7.0 65 3.1 NE 20 30 11 16 1017.5 1017.6 0.0
17/04:00pm 14.0 10.5 7.3 64 3.3 ENE 15 22 8 12 1017.6 1017.7 0.0
17/03:30pm 14.4 10.9 7.2 62 3.5 ENE 15 24 8 13 1017.7 1017.8 0.0
17/03:00pm 14.3 10.4 7.1 62 3.5 ENE 17 26 9 14 1018.0 1018.1 0.0
17/02:30pm 14.5 10.0 6.8 60 3.8 NE 20 30 11 16 1018.3 1018.4 0.0
17/02:00pm 13.1 8.7 6.5 64 3.2 NE 19 28 10 15 1018.8 1018.9 0.0
17/01:30pm 14.6 11.0 8.3 66 3.2 NE 17 26 9 14 1019.1 1019.2 0.0
17/01:00pm 13.8 9.6 7.3 65 3.2 ENE 19 24 10 13 1019.6 1019.7 0.0
17/12:30pm 13.8 10.9 8.2 69 2.8 NE 13 20 7 11 1020.1 1020.2 0.0
17/12:00pm 13.6 10.0 8.2 70 2.7 NE 17 24 9 13 1020.5 1020.6 0.0
17/11:30am 12.0 10.0 7.1 72 2.4 ENE 7 11 4 6 1021.1 1021.2 0.0
17/11:00am 11.8 9.7 6.5 70 2.5 NE 7 9 4 5 1021.3 1021.4 0.0
17/10:30am 12.5 11.4 6.8 68 2.7 NNE 2 7 1 4 1021.5 1021.6 0.0
17/10:00am 11.0 9.9 6.7 75 2.0 SSE 2 6 1 3 1021.7 1021.8 0.0
17/09:30am 10.5 8.9 6.3 75 2.0 WSW 4 7 2 4 1021.9 1022.0 0.0
17/09:00am 10.9 9.3 7.8 81 1.5 WNW 6 7 3 4 1021.7 1021.8 1.8
17/08:30am 8.6 7.8 6.7 88 0.9 CALM 0 0 0 0 1022.0 1022.1 1.8
17/08:00am 8.1 7.2 6.1 87 0.9 CALM 0 4 0 2 1021.8 1021.9 1.8
17/07:30am 7.8 5.7 5.8 87 0.9 SSE 6 7 3 4 1021.5 1021.6 1.8
17/07:00am 7.8 5.7 5.9 88 0.9 SW 6 9 3 5 1021.3 1021.4 1.8
17/06:30am 7.8 5.1 5.8 87 0.9 W 9 11 5 6 1021.0 1021.1 1.8
17/06:00am 8.1 5.5 6.2 88 0.9 WSW 9 11 5 6 1020.8 1020.9 1.8
17/05:30am 8.1 5.1 6.1 87 0.9 W 11 13 6 7 1020.6 1020.7 1.8
17/05:00am 7.9 4.5 5.9 87 0.9 W 13 15 7 8 1020.2 1020.3 1.8
17/04:30am 7.9 3.8 6.0 88 0.9 W 17 20 9 11 1020.0 1020.1 1.8
17/04:00am 8.1 4.0 6.4 89 0.8 WNW 17 22 9 12 1019.9 1020.0 1.8
17/03:30am 8.2 4.5 6.5 89 0.8 WNW 15 20 8 11 1019.8 1019.9 1.8
17/03:00am 8.3 4.6 6.4 88 0.9 W 15 20 8 11 1019.9 1020.0 1.8
17/02:30am 8.3 4.3 6.6 89 0.8 W 17 24 9 13 1019.8 1019.9 1.8
17/02:00am 8.0 3.5 6.3 89 0.8 WNW 19 24 10 13 1019.7 1019.8 1.8
17/01:30am 8.3 3.3 6.6 89 0.8 W 22 28 12 15 1019.7 1019.8 1.8
17/01:00am 8.2 3.6 6.5 89 0.8 WNW 20 26 11 14 1019.6 1019.7 1.8
17/12:30am 8.3 3.0 6.6 89 0.8 W 24 32 13 17 1019.3 1019.4 1.8
17/12:00am 8.2 3.3 6.8 91 0.6 W 22 30 12 16 1019.2 1019.3 1.8
 
Date/Time
EST
Temp
°C
App
Temp
°C
Dew
Point
°C
Rel
Hum
%
Delta-T
°C
Wind Press
QNH
hPa
Press
MSL
hPa
Rain since
9am
mm
Dir  Spd
km/h
Gust
km/h
Spd
kts
Gust
kts
16/11:30pm 8.4 3.1 7.0 91 0.7 W 24 30 13 16 1018.9 1019.0 1.8
16/11:00pm 8.4 4.1 7.0 91 0.7 WNW 19 26 10 14 1018.8 1018.9 1.8

Other formats

Comma delimited format used in spreadsheet applications
http://www.bom.gov.au/fwo/IDV60801/IDV60801.94891.axf

JavaScript Object Notation format (JSON) in row-major order
http://www.bom.gov.au/fwo/IDV60801/IDV60801.94891.json

Data quality

Most of these data are generated automatically and are frequently updated. Quality checks on data are not normally performed. It is possible for incorrect values to appear. Refer to information at About Latest Weather Observations and please check the disclaimer before using these data.